sensor_id;sensor_type;location;lat;lon;timestamp;temperature;humidity
11656;DHT22;5884;43.618;1.438;2023-11-19T05:47:53;8.60;99.90
11656;DHT22;5884;43.618;1.438;2023-11-19T05:50:20;8.60;99.90
11656;DHT22;5884;43.618;1.438;2023-11-19T05:52:47;8.60;99.90
11656;DHT22;5884;43.618;1.438;2023-11-19T05:55:14;8.60;99.90
11656;DHT22;5884;43.618;1.438;2023-11-19T05:57:42;8.60;99.90
11656;DHT22;5884;43.618;1.438;2023-11-19T06:00:10;8.50;99.90
11656;DHT22;5884;43.618;1.438;2023-11-19T06:02:40;8.60;99.90
11656;DHT22;5884;43.618;1.438;2023-11-19T06:05:07;8.50;99.90
11656;DHT22;5884;43.618;1.438;2023-11-19T06:07:35;8.50;99.90
11656;DHT22;5884;43.618;1.438;2023-11-19T06:10:05;8.50;99.90
11656;DHT22;5884;43.618;1.438;2023-11-19T06:12:33;8.60;99.90
11656;DHT22;5884;43.618;1.438;2023-11-19T06:15:04;8.50;99.90
11656;DHT22;5884;43.618;1.438;2023-11-19T06:17:34;8.50;99.90
11656;DHT22;5884;43.618;1.438;2023-11-19T06:20:03;8.50;99.90
11656;DHT22;5884;43.618;1.438;2023-11-19T06:22:31;8.50;99.90
11656;DHT22;5884;43.618;1.438;2023-11-19T06:24:58;8.50;99.90
11656;DHT22;5884;43.618;1.438;2023-11-19T06:27:25;8.50;99.90
11656;DHT22;5884;43.618;1.438;2023-11-19T06:29:52;8.50;99.90
11656;DHT22;5884;43.618;1.438;2023-11-19T06:32:20;8.40;99.90
11656;DHT22;5884;43.618;1.438;2023-11-19T06:34:47;8.40;99.90
11656;DHT22;5884;43.618;1.438;2023-11-19T06:37:16;8.30;99.90
11656;DHT22;5884;43.618;1.438;2023-11-19T06:39:43;8.20;99.90
11656;DHT22;5884;43.618;1.438;2023-11-19T06:42:10;8.20;99.90
11656;DHT22;5884;43.618;1.438;2023-11-19T06:44:37;8.20;99.90
11656;DHT22;5884;43.618;1.438;2023-11-19T06:47:04;8.10;99.90
11656;DHT22;5884;43.618;1.438;2023-11-19T06:49:32;8.20;99.90
11656;DHT22;5884;43.618;1.438;2023-11-19T06:51:59;8.10;99.90
11656;DHT22;5884;43.618;1.438;2023-11-19T06:54:27;8.00;99.90
11656;DHT22;5884;43.618;1.438;2023-11-19T06:56:54;8.00;99.90
11656;DHT22;5884;43.618;1.438;2023-11-19T06:59:23;8.00;99.90
11656;DHT22;5884;43.618;1.438;2023-11-19T07:01:50;7.90;99.90
11656;DHT22;5884;43.618;1.438;2023-11-19T07:04:17;7.90;99.90
11656;DHT22;5884;43.618;1.438;2023-11-19T07:06:44;7.90;99.90
11656;DHT22;5884;43.618;1.438;2023-11-19T07:09:11;7.90;99.90
11656;DHT22;5884;43.618;1.438;2023-11-19T07:11:41;7.90;99.90
11656;DHT22;5884;43.618;1.438;2023-11-19T07:14:09;7.90;99.90
11656;DHT22;5884;43.618;1.438;2023-11-19T07:16:37;8.00;99.90
11656;DHT22;5884;43.618;1.438;2023-11-19T07:19:05;8.00;99.90
11656;DHT22;5884;43.618;1.438;2023-11-19T07:21:32;7.90;99.90
11656;DHT22;5884;43.618;1.438;2023-11-19T07:24:00;7.90;99.90
11656;DHT22;5884;43.618;1.438;2023-11-19T07:26:27;7.90;99.90
11656;DHT22;5884;43.618;1.438;2023-11-19T07:28:55;7.90;99.90
11656;DHT22;5884;43.618;1.438;2023-11-19T07:31:24;7.90;99.90
11656;DHT22;5884;43.618;1.438;2023-11-19T07:33:51;8.00;99.90
11656;DHT22;5884;43.618;1.438;2023-11-19T07:36:18;8.00;99.90
11656;DHT22;5884;43.618;1.438;2023-11-19T07:38:45;8.10;99.90
11656;DHT22;5884;43.618;1.438;2023-11-19T07:41:13;8.00;99.90
11656;DHT22;5884;43.618;1.438;2023-11-19T07:43:42;8.10;99.90
11656;DHT22;5884;43.618;1.438;2023-11-19T07:46:14;8.10;99.90
11656;DHT22;5884;43.618;1.438;2023-11-19T07:48:41;8.10;99.90
11656;DHT22;5884;43.618;1.438;2023-11-19T07:51:10;8.20;99.90
11656;DHT22;5884;43.618;1.438;2023-11-19T07:53:38;8.20;99.90
11656;DHT22;5884;43.618;1.438;2023-11-19T07:56:07;8.20;99.90
11656;DHT22;5884;43.618;1.438;2023-11-19T07:58:34;8.20;99.90
11656;DHT22;5884;43.618;1.438;2023-11-19T08:01:02;8.30;99.90
11656;DHT22;5884;43.618;1.438;2023-11-19T08:03:30;8.30;99.90
11656;DHT22;5884;43.618;1.438;2023-11-19T08:06:00;8.40;99.90
11656;DHT22;5884;43.618;1.438;2023-11-19T08:08:27;8.40;99.90
11656;DHT22;5884;43.618;1.438;2023-11-19T08:10:55;8.40;99.90
11656;DHT22;5884;43.618;1.438;2023-11-19T08:13:23;8.50;99.90
11656;DHT22;5884;43.618;1.438;2023-11-19T08:15:51;8.60;99.90
11656;DHT22;5884;43.618;1.438;2023-11-19T08:18:18;8.60;99.90
11656;DHT22;5884;43.618;1.438;2023-11-19T08:20:46;8.70;99.90
11656;DHT22;5884;43.618;1.438;2023-11-19T08:23:18;8.80;99.90
11656;DHT22;5884;43.618;1.438;2023-11-19T08:25:45;8.90;99.90
11656;DHT22;5884;43.618;1.438;2023-11-19T08:28:12;9.00;99.90
11656;DHT22;5884;43.618;1.438;2023-11-19T08:30:39;9.00;99.90
11656;DHT22;5884;43.618;1.438;2023-11-19T08:33:06;9.10;99.90
11656;DHT22;5884;43.618;1.438;2023-11-19T08:35:33;9.20;99.90
11656;DHT22;5884;43.618;1.438;2023-11-19T08:38:02;9.20;99.90
11656;DHT22;5884;43.618;1.438;2023-11-19T08:40:29;9.30;99.90
11656;DHT22;5884;43.618;1.438;2023-11-19T08:42:57;9.40;99.90
11656;DHT22;5884;43.618;1.438;2023-11-19T08:45:25;9.50;99.90
11656;DHT22;5884;43.618;1.438;2023-11-19T08:47:52;9.60;99.90
11656;DHT22;5884;43.618;1.438;2023-11-19T08:50:19;9.60;99.90
11656;DHT22;5884;43.618;1.438;2023-11-19T08:52:46;9.60;99.90
11656;DHT22;5884;43.618;1.438;2023-11-19T08:55:15;9.70;99.90
11656;DHT22;5884;43.618;1.438;2023-11-19T08:57:42;9.70;99.90
11656;DHT22;5884;43.618;1.438;2023-11-19T09:00:11;9.90;99.90
11656;DHT22;5884;43.618;1.438;2023-11-19T09:02:39;9.90;99.90
11656;DHT22;5884;43.618;1.438;2023-11-19T09:05:08;10.00;99.90
11656;DHT22;5884;43.618;1.438;2023-11-19T09:07:35;10.00;99.90
11656;DHT22;5884;43.618;1.438;2023-11-19T09:10:03;10.10;99.90
11656;DHT22;5884;43.618;1.438;2023-11-19T09:12:32;10.10;99.90
11656;DHT22;5884;43.618;1.438;2023-11-19T09:14:59;10.20;99.90
11656;DHT22;5884;43.618;1.438;2023-11-19T09:17:26;10.20;99.90
11656;DHT22;5884;43.618;1.438;2023-11-19T09:19:54;10.30;99.90
11656;DHT22;5884;43.618;1.438;2023-11-19T09:22:21;10.40;99.90
11656;DHT22;5884;43.618;1.438;2023-11-19T09:24:48;10.40;99.90
11656;DHT22;5884;43.618;1.438;2023-11-19T09:27:15;10.50;99.90
11656;DHT22;5884;43.618;1.438;2023-11-19T09:29:44;10.60;99.90
11656;DHT22;5884;43.618;1.438;2023-11-19T09:32:12;10.60;99.90
11656;DHT22;5884;43.618;1.438;2023-11-19T09:34:39;10.70;99.90
11656;DHT22;5884;43.618;1.438;2023-11-19T09:37:06;10.80;99.90
11656;DHT22;5884;43.618;1.438;2023-11-19T09:39:33;10.90;99.90
11656;DHT22;5884;43.618;1.438;2023-11-19T09:42:00;11.00;99.90
11656;DHT22;5884;43.618;1.438;2023-11-19T09:44:27;11.10;99.90
11656;DHT22;5884;43.618;1.438;2023-11-19T09:46:58;11.10;99.90
11656;DHT22;5884;43.618;1.438;2023-11-19T09:49:26;11.20;99.90
11656;DHT22;5884;43.618;1.438;2023-11-19T09:51:54;11.30;99.90
11656;DHT22;5884;43.618;1.438;2023-11-19T09:54:21;11.40;99.90
11656;DHT22;5884;43.618;1.438;2023-11-19T09:56:48;11.50;99.90
11656;DHT22;5884;43.618;1.438;2023-11-19T09:59:16;11.60;99.90
11656;DHT22;5884;43.618;1.438;2023-11-19T10:01:45;11.60;99.90
11656;DHT22;5884;43.618;1.438;2023-11-19T10:04:15;11.70;99.90
11656;DHT22;5884;43.618;1.438;2023-11-19T10:06:43;11.70;99.90
11656;DHT22;5884;43.618;1.438;2023-11-19T10:09:12;11.80;99.90
11656;DHT22;5884;43.618;1.438;2023-11-19T10:11:40;12.00;99.90
11656;DHT22;5884;43.618;1.438;2023-11-19T10:14:07;12.00;99.90
11656;DHT22;5884;43.618;1.438;2023-11-19T10:16:35;12.10;99.90
11656;DHT22;5884;43.618;1.438;2023-11-19T10:19:03;12.10;99.90
11656;DHT22;5884;43.618;1.438;2023-11-19T10:21:34;12.20;99.90
11656;DHT22;5884;43.618;1.438;2023-11-19T10:24:02;12.30;99.90
11656;DHT22;5884;43.618;1.438;2023-11-19T10:26:29;12.40;99.90
11656;DHT22;5884;43.618;1.438;2023-11-19T10:28:56;12.50;99.90
11656;DHT22;5884;43.618;1.438;2023-11-19T10:31:24;12.50;99.90
11656;DHT22;5884;43.618;1.438;2023-11-19T10:33:52;12.60;99.90
11656;DHT22;5884;43.618;1.438;2023-11-19T10:36:19;12.70;99.90
11656;DHT22;5884;43.618;1.438;2023-11-19T10:38:53;12.80;99.90
11656;DHT22;5884;43.618;1.438;2023-11-19T10:41:27;12.80;99.90
11656;DHT22;5884;43.618;1.438;2023-11-19T10:43:55;12.90;99.90
11656;DHT22;5884;43.618;1.438;2023-11-19T10:46:22;13.00;99.90
11656;DHT22;5884;43.618;1.438;2023-11-19T10:48:49;13.10;99.90
11656;DHT22;5884;43.618;1.438;2023-11-19T10:51:19;13.20;99.90
11656;DHT22;5884;43.618;1.438;2023-11-19T10:53:49;13.30;99.90
11656;DHT22;5884;43.618;1.438;2023-11-19T10:56:20;13.30;99.90
11656;DHT22;5884;43.618;1.438;2023-11-19T10:58:51;13.40;99.90
11656;DHT22;5884;43.618;1.438;2023-11-19T11:01:20;13.40;99.90
11656;DHT22;5884;43.618;1.438;2023-11-19T11:03:51;13.40;99.90
11656;DHT22;5884;43.618;1.438;2023-11-19T11:06:20;13.60;99.90
11656;DHT22;5884;43.618;1.438;2023-11-19T11:08:49;13.70;99.90
11656;DHT22;5884;43.618;1.438;2023-11-19T11:11:18;13.70;99.90
11656;DHT22;5884;43.618;1.438;2023-11-19T11:13:47;13.80;99.90
11656;DHT22;5884;43.618;1.438;2023-11-19T11:16:18;13.90;99.90
11656;DHT22;5884;43.618;1.438;2023-11-19T11:18:48;14.00;99.90
11656;DHT22;5884;43.618;1.438;2023-11-19T11:21:21;14.00;99.90
11656;DHT22;5884;43.618;1.438;2023-11-19T11:24:17;14.10;99.90
11656;DHT22;5884;43.618;1.438;2023-11-19T11:27:09;14.20;99.90
11656;DHT22;5884;43.618;1.438;2023-11-19T11:30:06;14.20;99.90
11656;DHT22;5884;43.618;1.438;2023-11-19T11:32:43;14.30;99.90
11656;DHT22;5884;43.618;1.438;2023-11-19T11:35:27;14.30;99.90
11656;DHT22;5884;43.618;1.438;2023-11-19T11:38:02;14.30;99.90
11656;DHT22;5884;43.618;1.438;2023-11-19T11:40:30;14.40;99.90
11656;DHT22;5884;43.618;1.438;2023-11-19T11:42:59;14.50;99.90
11656;DHT22;5884;43.618;1.438;2023-11-19T11:45:36;14.50;99.90
11656;DHT22;5884;43.618;1.438;2023-11-19T11:48:10;14.60;99.90
11656;DHT22;5884;43.618;1.438;2023-11-19T11:50:48;14.70;99.90
11656;DHT22;5884;43.618;1.438;2023-11-19T11:53:17;14.70;99.90
11656;DHT22;5884;43.618;1.438;2023-11-19T11:55:56;14.70;99.90
11656;DHT22;5884;43.618;1.438;2023-11-19T11:58:36;14.80;99.90
11656;DHT22;5884;43.618;1.438;2023-11-19T12:01:07;14.90;99.90
11656;DHT22;5884;43.618;1.438;2023-11-19T12:03:35;14.90;99.90
11656;DHT22;5884;43.618;1.438;2023-11-19T12:06:04;15.10;99.90
11656;DHT22;5884;43.618;1.438;2023-11-19T12:08:34;15.10;99.90
11656;DHT22;5884;43.618;1.438;2023-11-19T12:11:02;15.20;99.90
11656;DHT22;5884;43.618;1.438;2023-11-19T12:13:47;15.30;99.90
11656;DHT22;5884;43.618;1.438;2023-11-19T12:16:21;15.30;99.90
11656;DHT22;5884;43.618;1.438;2023-11-19T12:18:49;15.30;99.90
11656;DHT22;5884;43.618;1.438;2023-11-19T12:21:28;15.30;99.90
11656;DHT22;5884;43.618;1.438;2023-11-19T12:23:58;15.40;99.90
11656;DHT22;5884;43.618;1.438;2023-11-19T12:26:37;15.50;99.90
11656;DHT22;5884;43.618;1.438;2023-11-19T12:29:06;15.50;99.90
11656;DHT22;5884;43.618;1.438;2023-11-19T12:31:33;15.50;99.90
11656;DHT22;5884;43.618;1.438;2023-11-19T12:34:07;15.50;99.90
11656;DHT22;5884;43.618;1.438;2023-11-19T12:36:38;15.50;99.90
11656;DHT22;5884;43.618;1.438;2023-11-19T12:39:07;15.40;99.90
11656;DHT22;5884;43.618;1.438;2023-11-19T12:41:52;15.40;99.90
11656;DHT22;5884;43.618;1.438;2023-11-19T12:44:21;15.50;99.90
11656;DHT22;5884;43.618;1.438;2023-11-19T12:47:02;15.50;99.90
11656;DHT22;5884;43.618;1.438;2023-11-19T12:49:31;15.50;99.90
11656;DHT22;5884;43.618;1.438;2023-11-19T12:51:58;15.50;99.90
11656;DHT22;5884;43.618;1.438;2023-11-19T12:54:33;15.70;99.90
11656;DHT22;5884;43.618;1.438;2023-11-19T12:57:01;15.80;99.90
11656;DHT22;5884;43.618;1.438;2023-11-19T12:59:31;16.00;99.90
11656;DHT22;5884;43.618;1.438;2023-11-19T13:01:58;16.00;99.90
11656;DHT22;5884;43.618;1.438;2023-11-19T13:04:28;16.00;99.90
11656;DHT22;5884;43.618;1.438;2023-11-19T13:06:56;16.00;99.90
11656;DHT22;5884;43.618;1.438;2023-11-19T13:09:23;16.00;99.90
11656;DHT22;5884;43.618;1.438;2023-11-19T13:11:51;16.00;99.90
11656;DHT22;5884;43.618;1.438;2023-11-19T13:14:19;16.00;99.90
11656;DHT22;5884;43.618;1.438;2023-11-19T13:16:47;16.10;99.90
11656;DHT22;5884;43.618;1.438;2023-11-19T13:19:15;16.30;99.90
11656;DHT22;5884;43.618;1.438;2023-11-19T13:21:44;16.20;99.90
11656;DHT22;5884;43.618;1.438;2023-11-19T13:24:12;16.20;99.90
11656;DHT22;5884;43.618;1.438;2023-11-19T13:26:40;16.20;99.90
11656;DHT22;5884;43.618;1.438;2023-11-19T13:29:07;16.20;99.90
11656;DHT22;5884;43.618;1.438;2023-11-19T13:31:36;16.20;99.90
11656;DHT22;5884;43.618;1.438;2023-11-19T13:34:05;16.20;99.90
11656;DHT22;5884;43.618;1.438;2023-11-19T13:36:33;16.20;99.90
11656;DHT22;5884;43.618;1.438;2023-11-19T13:39:00;16.10;99.90
11656;DHT22;5884;43.618;1.438;2023-11-19T13:41:28;16.10;99.90
11656;DHT22;5884;43.618;1.438;2023-11-19T13:43:55;16.10;99.90
11656;DHT22;5884;43.618;1.438;2023-11-19T13:46:22;16.20;99.90
11656;DHT22;5884;43.618;1.438;2023-11-19T13:48:49;16.20;99.90
11656;DHT22;5884;43.618;1.438;2023-11-19T13:51:17;16.20;99.90
11656;DHT22;5884;43.618;1.438;2023-11-19T13:53:45;16.20;99.90
11656;DHT22;5884;43.618;1.438;2023-11-19T13:56:12;16.20;99.90
11656;DHT22;5884;43.618;1.438;2023-11-19T13:58:39;16.20;99.90
11656;DHT22;5884;43.618;1.438;2023-11-19T14:01:06;16.30;99.90
11656;DHT22;5884;43.618;1.438;2023-11-19T14:03:34;16.30;99.90
11656;DHT22;5884;43.618;1.438;2023-11-19T14:06:01;16.30;99.90
11656;DHT22;5884;43.618;1.438;2023-11-19T14:08:30;16.30;99.90
11656;DHT22;5884;43.618;1.438;2023-11-19T14:10:57;16.30;99.90
11656;DHT22;5884;43.618;1.438;2023-11-19T14:13:24;16.50;99.90
11656;DHT22;5884;43.618;1.438;2023-11-19T14:15:52;16.50;99.90
11656;DHT22;5884;43.618;1.438;2023-11-19T14:18:19;16.50;99.90
11656;DHT22;5884;43.618;1.438;2023-11-19T14:20:46;16.60;99.90
11656;DHT22;5884;43.618;1.438;2023-11-19T14:23:13;16.50;99.90
11656;DHT22;5884;43.618;1.438;2023-11-19T14:25:43;16.50;99.90
11656;DHT22;5884;43.618;1.438;2023-11-19T14:28:10;16.50;99.90
11656;DHT22;5884;43.618;1.438;2023-11-19T14:30:37;16.60;99.90
11656;DHT22;5884;43.618;1.438;2023-11-19T14:33:07;16.70;99.90
11656;DHT22;5884;43.618;1.438;2023-11-19T14:35:34;16.70;99.90
11656;DHT22;5884;43.618;1.438;2023-11-19T14:38:01;16.70;99.90
11656;DHT22;5884;43.618;1.438;2023-11-19T14:40:30;16.60;99.90
11656;DHT22;5884;43.618;1.438;2023-11-19T14:42:59;16.60;99.90
11656;DHT22;5884;43.618;1.438;2023-11-19T14:45:26;16.70;99.90
11656;DHT22;5884;43.618;1.438;2023-11-19T14:47:53;16.60;99.90
11656;DHT22;5884;43.618;1.438;2023-11-19T14:50:20;16.70;99.90
11656;DHT22;5884;43.618;1.438;2023-11-19T14:52:47;16.60;99.90
11656;DHT22;5884;43.618;1.438;2023-11-19T14:55:14;16.60;99.90
11656;DHT22;5884;43.618;1.438;2023-11-19T14:57:42;16.50;99.90
11656;DHT22;5884;43.618;1.438;2023-11-19T15:00:12;16.50;99.90
11656;DHT22;5884;43.618;1.438;2023-11-19T15:02:40;16.40;99.90
11656;DHT22;5884;43.618;1.438;2023-11-19T15:05:08;16.40;99.90
11656;DHT22;5884;43.618;1.438;2023-11-19T15:07:36;16.40;99.90
11656;DHT22;5884;43.618;1.438;2023-11-19T15:10:04;16.40;99.90
11656;DHT22;5884;43.618;1.438;2023-11-19T15:12:36;16.40;99.90
11656;DHT22;5884;43.618;1.438;2023-11-19T15:15:07;16.40;99.90
11656;DHT22;5884;43.618;1.438;2023-11-19T15:17:36;16.30;99.90
11656;DHT22;5884;43.618;1.438;2023-11-19T15:20:04;16.30;99.90
11656;DHT22;5884;43.618;1.438;2023-11-19T15:22:32;16.20;99.90
11656;DHT22;5884;43.618;1.438;2023-11-19T15:24:59;16.10;99.90
11656;DHT22;5884;43.618;1.438;2023-11-19T15:27:27;16.30;99.90
11656;DHT22;5884;43.618;1.438;2023-11-19T15:29:54;16.40;99.90
11656;DHT22;5884;43.618;1.438;2023-11-19T15:32:21;16.20;99.90
11656;DHT22;5884;43.618;1.438;2023-11-19T15:34:50;16.20;99.90
11656;DHT22;5884;43.618;1.438;2023-11-19T15:37:18;16.30;99.90
11656;DHT22;5884;43.618;1.438;2023-11-19T15:39:45;16.40;99.90
11656;DHT22;5884;43.618;1.438;2023-11-19T15:42:13;16.30;99.90
11656;DHT22;5884;43.618;1.438;2023-11-19T15:44:40;16.10;99.90
11656;DHT22;5884;43.618;1.438;2023-11-19T15:47:08;16.00;99.90
11656;DHT22;5884;43.618;1.438;2023-11-19T15:49:35;15.90;99.90
11656;DHT22;5884;43.618;1.438;2023-11-19T15:52:04;15.80;99.90
11656;DHT22;5884;43.618;1.438;2023-11-19T15:54:32;15.70;99.90
11656;DHT22;5884;43.618;1.438;2023-11-19T15:56:59;15.60;99.90
11656;DHT22;5884;43.618;1.438;2023-11-19T15:59:27;15.50;99.90
11656;DHT22;5884;43.618;1.438;2023-11-19T16:01:54;15.50;99.90
11656;DHT22;5884;43.618;1.438;2023-11-19T16:04:22;15.40;99.90
11656;DHT22;5884;43.618;1.438;2023-11-19T16:06:50;15.30;99.90
11656;DHT22;5884;43.618;1.438;2023-11-19T16:09:18;15.20;99.90
11656;DHT22;5884;43.618;1.438;2023-11-19T16:11:47;15.10;99.90
11656;DHT22;5884;43.618;1.438;2023-11-19T16:14:15;15.00;99.90
11656;DHT22;5884;43.618;1.438;2023-11-19T16:16:42;14.90;99.90
11656;DHT22;5884;43.618;1.438;2023-11-19T16:19:09;14.80;99.90
11656;DHT22;5884;43.618;1.438;2023-11-19T16:21:36;14.70;99.90
11656;DHT22;5884;43.618;1.438;2023-11-19T16:24:04;14.70;99.90
11656;DHT22;5884;43.618;1.438;2023-11-19T16:26:34;14.60;99.90
11656;DHT22;5884;43.618;1.438;2023-11-19T16:29:02;14.50;99.90
11656;DHT22;5884;43.618;1.438;2023-11-19T16:31:29;14.40;99.90
11656;DHT22;5884;43.618;1.438;2023-11-19T16:33:56;14.40;99.90
11656;DHT22;5884;43.618;1.438;2023-11-19T16:36:25;14.30;99.90
11656;DHT22;5884;43.618;1.438;2023-11-19T16:38:53;14.30;99.90
11656;DHT22;5884;43.618;1.438;2023-11-19T16:41:20;14.20;99.90
11656;DHT22;5884;43.618;1.438;2023-11-19T16:43:50;14.10;99.90
11656;DHT22;5884;43.618;1.438;2023-11-19T16:46:18;14.10;99.90
11656;DHT22;5884;43.618;1.438;2023-11-19T16:48:45;14.10;99.90
11656;DHT22;5884;43.618;1.438;2023-11-19T16:51:14;14.00;99.90
11656;DHT22;5884;43.618;1.438;2023-11-19T16:53:45;13.90;99.90
11656;DHT22;5884;43.618;1.438;2023-11-19T16:56:12;13.90;99.90
11656;DHT22;5884;43.618;1.438;2023-11-19T16:58:40;13.80;99.90
11656;DHT22;5884;43.618;1.438;2023-11-19T17:01:10;13.80;99.90
11656;DHT22;5884;43.618;1.438;2023-11-19T17:03:39;13.70;99.90
11656;DHT22;5884;43.618;1.438;2023-11-19T17:06:07;13.70;99.90
11656;DHT22;5884;43.618;1.438;2023-11-19T17:08:35;13.70;99.90
11656;DHT22;5884;43.618;1.438;2023-11-19T17:11:04;13.60;99.90
11656;DHT22;5884;43.618;1.438;2023-11-19T17:13:32;13.60;99.90
11656;DHT22;5884;43.618;1.438;2023-11-19T17:16:00;13.50;99.90
11656;DHT22;5884;43.618;1.438;2023-11-19T17:18:28;13.50;99.90
11656;DHT22;5884;43.618;1.438;2023-11-19T17:20:55;13.40;99.90
11656;DHT22;5884;43.618;1.438;2023-11-19T17:23:23;13.30;99.90
11656;DHT22;5884;43.618;1.438;2023-11-19T17:25:51;13.30;99.90
11656;DHT22;5884;43.618;1.438;2023-11-19T17:28:19;13.30;99.90
11656;DHT22;5884;43.618;1.438;2023-11-19T17:30:46;13.20;99.90
11656;DHT22;5884;43.618;1.438;2023-11-19T17:33:13;13.10;99.90
11656;DHT22;5884;43.618;1.438;2023-11-19T17:35:41;13.10;99.90
11656;DHT22;5884;43.618;1.438;2023-11-19T17:38:09;13.10;99.90
11656;DHT22;5884;43.618;1.438;2023-11-19T17:40:36;13.00;99.90
11656;DHT22;5884;43.618;1.438;2023-11-19T17:43:03;13.00;99.90
11656;DHT22;5884;43.618;1.438;2023-11-19T17:45:30;13.00;99.90
11656;DHT22;5884;43.618;1.438;2023-11-19T17:47:57;12.90;99.90
11656;DHT22;5884;43.618;1.438;2023-11-19T17:50:24;12.80;99.90
11656;DHT22;5884;43.618;1.438;2023-11-19T17:52:53;12.80;99.90
11656;DHT22;5884;43.618;1.438;2023-11-19T17:55:20;12.80;99.90
11656;DHT22;5884;43.618;1.438;2023-11-19T17:57:47;12.80;99.90
11656;DHT22;5884;43.618;1.438;2023-11-19T18:00:17;12.80;99.90
11656;DHT22;5884;43.618;1.438;2023-11-19T18:02:45;12.70;99.90
11656;DHT22;5884;43.618;1.438;2023-11-19T18:05:14;12.70;99.90
11656;DHT22;5884;43.618;1.438;2023-11-19T18:07:41;12.70;99.90
11656;DHT22;5884;43.618;1.438;2023-11-19T18:10:10;12.60;99.90
11656;DHT22;5884;43.618;1.438;2023-11-19T18:12:38;12.60;99.90
11656;DHT22;5884;43.618;1.438;2023-11-19T18:15:06;12.50;99.90
11656;DHT22;5884;43.618;1.438;2023-11-19T18:17:34;12.50;99.90
11656;DHT22;5884;43.618;1.438;2023-11-19T18:20:03;12.50;99.90
11656;DHT22;5884;43.618;1.438;2023-11-19T18:22:32;12.40;99.90
11656;DHT22;5884;43.618;1.438;2023-11-19T18:24:59;12.30;99.90
11656;DHT22;5884;43.618;1.438;2023-11-19T18:27:27;12.30;99.90
11656;DHT22;5884;43.618;1.438;2023-11-19T18:29:55;12.30;99.90
11656;DHT22;5884;43.618;1.438;2023-11-19T18:32:22;12.30;99.90
11656;DHT22;5884;43.618;1.438;2023-11-19T18:34:49;12.30;99.90
11656;DHT22;5884;43.618;1.438;2023-11-19T18:37:16;12.30;99.90
11656;DHT22;5884;43.618;1.438;2023-11-19T18:39:43;12.30;99.90
11656;DHT22;5884;43.618;1.438;2023-11-19T18:42:10;12.30;99.90
11656;DHT22;5884;43.618;1.438;2023-11-19T18:44:39;12.30;99.90
11656;DHT22;5884;43.618;1.438;2023-11-19T18:47:06;12.40;99.90
11656;DHT22;5884;43.618;1.438;2023-11-19T18:49:33;12.30;99.90
11656;DHT22;5884;43.618;1.438;2023-11-19T18:52:01;12.30;99.90
11656;DHT22;5884;43.618;1.438;2023-11-19T18:54:29;12.40;99.90
11656;DHT22;5884;43.618;1.438;2023-11-19T18:56:56;12.30;99.90
11656;DHT22;5884;43.618;1.438;2023-11-19T18:59:23;12.30;99.90
11656;DHT22;5884;43.618;1.438;2023-11-19T19:01:51;12.30;99.90
11656;DHT22;5884;43.618;1.438;2023-11-19T19:04:18;12.30;99.90
11656;DHT22;5884;43.618;1.438;2023-11-19T19:06:48;12.40;99.90
11656;DHT22;5884;43.618;1.438;2023-11-19T19:09:15;12.40;99.90
11656;DHT22;5884;43.618;1.438;2023-11-19T19:11:44;12.30;99.90
11656;DHT22;5884;43.618;1.438;2023-11-19T19:14:13;12.30;99.90
11656;DHT22;5884;43.618;1.438;2023-11-19T19:16:40;12.30;99.90
11656;DHT22;5884;43.618;1.438;2023-11-19T19:19:09;12.20;99.90
11656;DHT22;5884;43.618;1.438;2023-11-19T19:21:36;12.20;99.90
11656;DHT22;5884;43.618;1.438;2023-11-19T19:24:04;12.20;99.90
11656;DHT22;5884;43.618;1.438;2023-11-19T19:26:34;12.20;99.90
11656;DHT22;5884;43.618;1.438;2023-11-19T19:29:02;12.20;99.90
11656;DHT22;5884;43.618;1.438;2023-11-19T19:31:29;12.10;99.90
11656;DHT22;5884;43.618;1.438;2023-11-19T19:33:56;12.10;99.90
11656;DHT22;5884;43.618;1.438;2023-11-19T19:36:25;12.00;99.90
11656;DHT22;5884;43.618;1.438;2023-11-19T19:38:53;12.00;99.90
11656;DHT22;5884;43.618;1.438;2023-11-19T19:41:21;12.00;99.90
11656;DHT22;5884;43.618;1.438;2023-11-19T19:43:49;11.90;99.90
11656;DHT22;5884;43.618;1.438;2023-11-19T19:46:16;11.90;99.90
11656;DHT22;5884;43.618;1.438;2023-11-19T19:48:43;11.90;99.90
11656;DHT22;5884;43.618;1.438;2023-11-19T19:51:10;11.90;99.90
11656;DHT22;5884;43.618;1.438;2023-11-19T19:53:39;11.90;99.90
11656;DHT22;5884;43.618;1.438;2023-11-19T19:56:08;11.90;99.90
11656;DHT22;5884;43.618;1.438;2023-11-19T19:58:35;11.90;99.90
11656;DHT22;5884;43.618;1.438;2023-11-19T20:01:05;11.90;99.90
11656;DHT22;5884;43.618;1.438;2023-11-19T20:03:33;11.80;99.90
11656;DHT22;5884;43.618;1.438;2023-11-19T20:06:01;11.80;99.90
11656;DHT22;5884;43.618;1.438;2023-11-19T20:08:30;11.70;99.90
11656;DHT22;5884;43.618;1.438;2023-11-19T20:10:58;11.70;99.90
11656;DHT22;5884;43.618;1.438;2023-11-19T20:13:26;11.60;99.90
11656;DHT22;5884;43.618;1.438;2023-11-19T20:15:54;11.70;99.90
11656;DHT22;5884;43.618;1.438;2023-11-19T20:18:21;11.60;99.90
11656;DHT22;5884;43.618;1.438;2023-11-19T20:20:48;11.60;99.90
11656;DHT22;5884;43.618;1.438;2023-11-19T20:23:15;11.60;99.90
11656;DHT22;5884;43.618;1.438;2023-11-19T20:25:42;11.60;99.90
11656;DHT22;5884;43.618;1.438;2023-11-19T20:28:11;11.50;99.90
11656;DHT22;5884;43.618;1.438;2023-11-19T20:30:38;11.50;99.90
11656;DHT22;5884;43.618;1.438;2023-11-19T20:33:06;11.50;99.90
11656;DHT22;5884;43.618;1.438;2023-11-19T20:35:33;11.50;99.90
11656;DHT22;5884;43.618;1.438;2023-11-19T20:38:01;11.50;99.90
11656;DHT22;5884;43.618;1.438;2023-11-19T20:40:29;11.40;99.90
11656;DHT22;5884;43.618;1.438;2023-11-19T20:42:56;11.50;99.90
11656;DHT22;5884;43.618;1.438;2023-11-19T20:45:25;11.40;99.90
11656;DHT22;5884;43.618;1.438;2023-11-19T20:47:53;11.40;99.90
11656;DHT22;5884;43.618;1.438;2023-11-19T20:50:20;11.40;99.90
11656;DHT22;5884;43.618;1.438;2023-11-19T20:52:50;11.40;99.90
11656;DHT22;5884;43.618;1.438;2023-11-19T20:55:18;11.30;99.90
11656;DHT22;5884;43.618;1.438;2023-11-19T20:57:46;11.40;99.90
11656;DHT22;5884;43.618;1.438;2023-11-19T21:00:14;11.30;99.90
11656;DHT22;5884;43.618;1.438;2023-11-19T21:02:45;11.30;99.90
11656;DHT22;5884;43.618;1.438;2023-11-19T21:05:12;11.30;99.90
11656;DHT22;5884;43.618;1.438;2023-11-19T21:07:39;11.30;99.90
11656;DHT22;5884;43.618;1.438;2023-11-19T21:10:07;11.30;99.90
11656;DHT22;5884;43.618;1.438;2023-11-19T21:12:38;11.30;99.90
11656;DHT22;5884;43.618;1.438;2023-11-19T21:15:07;11.30;99.90
11656;DHT22;5884;43.618;1.438;2023-11-19T21:17:34;11.30;99.90
11656;DHT22;5884;43.618;1.438;2023-11-19T21:20:04;11.30;99.90
11656;DHT22;5884;43.618;1.438;2023-11-19T21:22:33;11.30;99.90
11656;DHT22;5884;43.618;1.438;2023-11-19T21:25:00;11.30;99.90
11656;DHT22;5884;43.618;1.438;2023-11-19T21:27:27;11.30;99.90
11656;DHT22;5884;43.618;1.438;2023-11-19T21:29:55;11.30;99.90
11656;DHT22;5884;43.618;1.438;2023-11-19T21:32:24;11.30;99.90
11656;DHT22;5884;43.618;1.438;2023-11-19T21:34:51;11.30;99.90
11656;DHT22;5884;43.618;1.438;2023-11-19T21:37:19;11.30;99.90
11656;DHT22;5884;43.618;1.438;2023-11-19T21:39:46;11.30;99.90
11656;DHT22;5884;43.618;1.438;2023-11-19T21:42:14;11.30;99.90
11656;DHT22;5884;43.618;1.438;2023-11-19T21:44:41;11.20;99.90